Time;durP1;ratioP1;P1;durP2;ratioP2;P2;SDS_P1;SDS_P2;PMS_P1;PMS_P2;Temp;Humidity;BMP_temperature;BMP_pressure;BME280_temperature;BME280_humidity;BME280_pressure;Samples;Min_cycle;Max_cycle;Signal;HPM_P1;HPM_P2
2021/10/19 00:00:35;;;;;;;13.43;8.53;;;;;;;8.38;100.00;101636.97;5134804;27;20031;-80
2021/10/19 00:03:01;;;;;;;13.80;8.52;;;;;;;8.38;100.00;101624.53;5133013;27;20039;-80
2021/10/19 00:05:27;;;;;;;18.25;8.95;;;;;;;8.39;100.00;101618.25;5115654;27;20138;-80
2021/10/19 00:07:53;;;;;;;11.80;8.00;;;;;;;8.43;100.00;101618.88;5133620;27;20045;-80
2021/10/19 00:10:19;;;;;;;16.25;7.78;;;;;;;8.34;100.00;101609.81;5134319;27;20019;-80
2021/10/19 00:12:45;;;;;;;15.00;8.48;;;;;;;8.38;100.00;101605.91;5134222;27;20031;-80
2021/10/19 00:15:13;;;;;;;10.55;7.85;;;;;;;8.38;100.00;101600.59;5132646;27;20035;-80
2021/10/19 00:17:40;;;;;;;13.00;7.75;;;;;;;8.42;100.00;101606.53;5116004;27;20034;-80
2021/10/19 00:20:07;;;;;;;15.10;7.38;;;;;;;8.38;100.00;101605.06;5132714;27;20038;-80
2021/10/19 00:22:33;;;;;;;16.83;8.57;;;;;;;8.37;100.00;101598.06;5115614;27;20055;-80
2021/10/19 00:25:04;;;;;;;11.85;8.23;;;;;;;8.34;100.00;101601.81;5132051;27;20023;-81
2021/10/19 00:27:31;;;;;;;13.98;8.45;;;;;;;8.34;100.00;101603.63;5132620;27;20031;-80
2021/10/19 00:29:56;;;;;;;15.25;8.98;;;;;;;8.40;100.00;101603.97;5133207;27;20160;-81
2021/10/19 00:32:22;;;;;;;10.07;7.57;;;;;;;8.41;100.00;101588.88;5131825;27;20114;-81
2021/10/19 00:34:48;;;;;;;13.77;7.68;;;;;;;8.40;100.00;101577.38;5129960;27;20176;-81
2021/10/19 00:37:13;;;;;;;20.13;8.35;;;;;;;8.42;100.00;101586.06;5112823;27;20121;-82
2021/10/19 00:39:38;;;;;;;12.20;8.03;;;;;;;8.48;100.00;101586.56;5130024;27;20462;-81
2021/10/19 00:42:04;;;;;;;15.73;7.70;;;;;;;8.46;100.00;101581.34;5129623;27;20423;-81
2021/10/19 00:44:29;;;;;;;12.95;8.75;;;;;;;8.40;100.00;101582.69;5129324;27;20031;-80
2021/10/19 00:46:57;;;;;;;15.77;9.13;;;;;;;8.41;100.00;101578.25;5129778;27;20027;-80
2021/10/19 00:49:24;;;;;;;13.75;8.25;;;;;;;8.37;100.00;101561.63;5131867;27;20476;-80
2021/10/19 00:51:49;;;;;;;16.08;9.07;;;;;;;8.50;100.00;101572.16;5130826;27;20035;-80
2021/10/19 00:54:15;;;;;;;12.55;8.63;;;;;;;8.47;100.00;101574.22;5130842;27;20057;-79
2021/10/19 00:56:41;;;;;;;13.20;8.30;;;;;;;8.50;100.00;101576.59;5113309;27;20031;-80
2021/10/19 00:59:07;;;;;;;17.52;9.25;;;;;;;8.52;100.00;101585.31;5130385;27;20116;-80
2021/10/19 01:01:34;;;;;;;16.17;9.48;;;;;;;8.50;100.00;101585.47;5130189;27;20034;-80
2021/10/19 01:04:00;;;;;;;11.43;7.88;;;;;;;8.58;100.00;101595.44;5129856;27;20448;-79
2021/10/19 01:06:26;;;;;;;13.05;7.78;;;;;;;8.58;100.00;101568.84;5131402;27;20031;-79
2021/10/19 01:08:51;;;;;;;17.80;8.93;;;;;;;8.61;100.00;101563.25;5130540;27;20125;-80
2021/10/19 01:11:17;;;;;;;14.87;8.07;;;;;;;8.59;100.00;101560.72;5130519;27;20099;-80
2021/10/19 01:13:43;;;;;;;11.75;8.50;;;;;;;8.61;100.00;101552.59;5113052;27;20035;-79
2021/10/19 01:16:10;;;;;;;13.80;8.35;;;;;;;8.60;100.00;101549.09;5113209;27;20068;-79
2021/10/19 01:18:38;;;;;;;21.45;9.80;;;;;;;8.66;100.00;101553.91;5130132;27;20027;-80
2021/10/19 01:21:06;;;;;;;15.18;8.23;;;;;;;8.65;100.00;101543.38;5129966;27;20381;-80
2021/10/19 01:23:35;;;;;;;16.60;9.38;;;;;;;8.68;100.00;101542.28;5113018;27;20126;-79
2021/10/19 01:26:03;;;;;;;16.83;9.68;;;;;;;8.61;100.00;101532.13;5130168;27;20034;-79
2021/10/19 01:28:30;;;;;;;13.30;9.48;;;;;;;8.70;100.00;101543.00;5130385;27;20095;-80
2021/10/19 01:30:58;;;;;;;14.93;9.35;;;;;;;8.68;100.00;101544.94;5131469;27;20061;-80
2021/10/19 01:33:25;;;;;;;16.55;9.65;;;;;;;8.72;100.00;101549.88;5129931;27;20122;-80
2021/10/19 01:35:51;;;;;;;16.77;9.25;;;;;;;8.77;100.00;101550.31;5130324;27;20057;-80
2021/10/19 01:38:20;;;;;;;14.32;9.10;;;;;;;8.70;100.00;101543.00;5113244;28;20108;-79
2021/10/19 01:40:46;;;;;;;13.23;9.38;;;;;;;8.67;100.00;101533.44;5131249;27;20031;-80
2021/10/19 01:43:13;;;;;;;16.63;9.68;;;;;;;8.74;100.00;101528.44;5130016;27;20444;-80
2021/10/19 01:45:39;;;;;;;19.08;10.48;;;;;;;8.72;100.00;101523.25;5129881;27;20444;-80
2021/10/19 01:48:06;;;;;;;;;;;;;;;8.72;100.00;101520.59;5113388;28;20622;-80
2021/10/19 01:50:31;;;;;;;19.63;9.82;;;;;;;8.73;99.94;101519.59;5130989;27;19915;-80
2021/10/19 01:52:58;;;;;;;19.52;10.07;;;;;;;8.67;99.83;101520.16;5129835;27;20035;-79
2021/10/19 01:55:23;;;;;;;18.42;10.40;;;;;;;8.62;100.00;101512.53;5129680;27;20035;-80
2021/10/19 01:57:48;;;;;;;18.30;9.67;;;;;;;8.63;100.00;101498.25;5130912;27;20037;-79
2021/10/19 02:00:14;;;;;;;19.20;9.75;;;;;;;8.60;100.00;101495.03;5129922;28;20027;-80
2021/10/19 02:02:40;;;;;;;15.83;10.13;;;;;;;8.67;100.00;101498.84;5130014;28;20030;-79
2021/10/19 02:05:09;;;;;;;;;;;;;;;8.71;100.00;101497.63;5129626;28;20038;-79
2021/10/19 02:07:35;;;;;;;20.48;10.32;;;;;;;8.72;100.00;101485.97;5129654;27;19946;-79
2021/10/19 02:10:02;;;;;;;16.73;9.52;;;;;;;8.68;100.00;101479.22;5112567;28;20062;-80
2021/10/19 02:12:28;;;;;;;17.63;8.98;;;;;;;8.75;99.79;101475.06;5130345;27;20035;-80
2021/10/19 02:14:53;;;;;;;16.77;10.70;;;;;;;8.73;100.00;101469.00;5129372;28;20043;-80
2021/10/19 02:17:19;;;;;;;18.08;9.63;;;;;;;8.75;100.00;101471.56;5130519;27;20042;-80
2021/10/19 02:19:45;;;;;;;18.90;10.17;;;;;;;8.83;99.39;101477.06;5129822;27;20119;-79
2021/10/19 02:22:10;;;;;;;19.42;9.98;;;;;;;8.89;99.49;101476.53;5130463;28;20039;-80
2021/10/19 02:24:36;;;;;;;18.33;9.47;;;;;;;8.84;99.15;101463.59;5112561;28;20032;-80
2021/10/19 02:27:01;;;;;;;19.85;12.57;;;;;;;8.89;98.66;101460.53;5113484;27;20490;-80
2021/10/19 02:29:27;;;;;;;16.77;10.77;;;;;;;9.02;98.31;101452.34;5133566;27;20027;-79
2021/10/19 02:31:52;;;;;;;16.00;9.83;;;;;;;8.94;98.31;101434.34;5133381;27;20046;-79
2021/10/19 02:34:18;;;;;;;18.58;10.10;;;;;;;8.94;97.96;101441.50;5132956;27;20050;-79
2021/10/19 02:36:44;;;;;;;16.80;10.52;;;;;;;9.02;98.17;101431.03;5134246;27;20034;-78
2021/10/19 02:39:09;;;;;;;14.57;10.85;;;;;;;9.05;97.84;101438.75;5116191;27;20034;-79
2021/10/19 02:41:37;;;;;;;17.05;11.00;;;;;;;9.00;97.66;101430.31;5133083;27;20095;-79
2021/10/19 02:44:03;;;;;;;19.67;10.40;;;;;;;9.06;97.23;101435.09;5133220;27;20188;-78
2021/10/19 02:46:31;;;;;;;;;;;;;;;9.09;97.03;101426.84;5133709;27;20180;-79
2021/10/19 02:48:58;;;;;;;16.92;10.02;;;;;;;9.07;97.27;101415.47;5133042;27;19959;-79
2021/10/19 02:51:24;;;;;;;21.60;11.13;;;;;;;9.08;97.01;101427.81;5134192;27;20448;-79
2021/10/19 02:53:49;;;;;;;17.90;10.45;;;;;;;9.18;96.41;101417.19;5133498;27;20091;-80
2021/10/19 02:56:15;;;;;;;17.63;10.87;;;;;;;9.20;96.20;101428.53;5133080;27;20380;-79
2021/10/19 02:58:40;;;;;;;19.08;11.65;;;;;;;9.19;96.22;101429.53;5134059;27;20084;-80
2021/10/19 03:01:06;;;;;;;18.83;11.38;;;;;;;9.17;96.25;101426.97;5133317;27;20058;-79
2021/10/19 03:03:31;;;;;;;21.77;11.90;;;;;;;9.14;96.58;101413.94;5133749;27;20054;-79
2021/10/19 03:05:57;;;;;;;17.73;11.17;;;;;;;9.16;96.42;101413.81;5134262;27;20031;-80
2021/10/19 03:08:22;;;;;;;17.75;11.70;;;;;;;9.18;96.52;101418.03;5133593;27;20058;-80
2021/10/19 03:10:48;;;;;;;17.93;10.90;;;;;;;9.20;96.42;101405.41;5133894;27;20023;-78
2021/10/19 03:13:14;;;;;;;;;;;;;;;9.15;96.28;101399.63;5134181;27;20027;-79
2021/10/19 03:15:40;;;;;;;;;;;;;;;9.16;96.48;101401.34;5133331;27;19912;-78
2021/10/19 03:18:05;;;;;;;19.13;11.68;;;;;;;9.10;96.81;101399.22;5133104;27;20013;-80
2021/10/19 03:20:31;;;;;;;18.67;11.33;;;;;;;9.04;96.94;101391.78;5133878;27;20051;-79
2021/10/19 03:22:57;;;;;;;21.67;12.90;;;;;;;9.10;96.90;101391.22;5132800;27;20158;-80
2021/10/19 03:25:23;;;;;;;;;;;;;;;9.14;97.06;101399.78;5133835;27;20027;-80
2021/10/19 03:27:48;;;;;;;22.45;11.27;;;;;;;9.07;96.77;101391.50;5132759;27;20233;-80
2021/10/19 03:30:14;;;;;;;20.13;11.77;;;;;;;9.12;96.87;101396.41;5133926;27;20155;-81
2021/10/19 03:32:40;;;;;;;19.40;11.38;;;;;;;9.15;97.06;101407.63;5133844;27;20348;-80
2021/10/19 03:35:05;;;;;;;20.63;11.20;;;;;;;9.12;96.94;101429.22;5134020;27;20031;-80
2021/10/19 03:37:31;;;;;;;19.08;12.55;;;;;;;9.12;97.22;101431.06;5132808;27;20539;-81
2021/10/19 03:39:56;;;;;;;21.73;12.50;;;;;;;9.03;97.64;101430.03;5132833;27;20039;-81
2021/10/19 03:42:22;;;;;;;18.13;11.60;;;;;;;8.98;98.08;101413.63;5132811;27;20034;-81
2021/10/19 03:44:47;;;;;;;23.80;12.97;;;;;;;9.03;97.96;101411.38;5132550;27;20019;-80
2021/10/19 03:47:13;;;;;;;23.43;11.90;;;;;;;8.99;97.92;101391.31;5133722;27;20043;-81
2021/10/19 03:49:38;;;;;;;19.77;12.43;;;;;;;8.92;97.74;101385.72;5132599;27;20277;-80
2021/10/19 03:52:04;;;;;;;23.60;12.70;;;;;;;9.03;98.27;101398.91;5133530;27;20312;-81
2021/10/19 03:54:30;;;;;;;25.20;13.68;;;;;;;9.03;97.95;101403.41;5131713;27;20422;-80
2021/10/19 03:56:55;;;;;;;22.97;12.43;;;;;;;9.10;97.94;101420.53;5133343;27;20119;-80
2021/10/19 03:59:21;;;;;;;21.47;12.03;;;;;;;9.09;97.72;101416.19;5133443;27;20438;-80
2021/10/19 04:01:46;;;;;;;27.47;12.60;;;;;;;9.16;97.68;101419.97;5133432;27;20058;-80
2021/10/19 04:04:12;;;;;;;24.85;13.10;;;;;;;9.11;97.51;101403.56;5132159;27;20043;-80
2021/10/19 04:06:38;;;;;;;22.47;13.00;;;;;;;9.09;97.75;101402.88;5132559;27;20027;-80
2021/10/19 04:09:04;;;;;;;22.90;12.80;;;;;;;9.19;97.46;101403.72;5133364;27;20031;-80
2021/10/19 04:11:30;;;;;;;20.02;12.55;;;;;;;9.21;97.04;101393.78;5132245;27;20523;-80
2021/10/19 04:13:55;;;;;;;18.53;11.60;;;;;;;9.24;97.09;101390.81;5132135;27;20110;-80
2021/10/19 04:16:21;;;;;;;24.97;14.80;;;;;;;9.21;96.87;101382.28;5131956;27;20777;-81
2021/10/19 04:18:46;;;;;;;24.90;14.32;;;;;;;9.28;96.78;101386.06;5132111;27;20276;-79
2021/10/19 04:21:12;;;;;;;22.23;13.82;;;;;;;9.19;96.87;101392.22;5131929;27;20043;-80
2021/10/19 04:23:37;;;;;;;28.93;15.33;;;;;;;9.15;97.27;101399.63;5131596;27;20029;-80
2021/10/19 04:26:03;;;;;;;23.63;13.13;;;;;;;9.12;97.09;101405.25;5132596;27;20038;-80
2021/10/19 04:28:28;;;;;;;27.10;13.93;;;;;;;9.17;97.46;101403.00;5131894;27;20043;-80
2021/10/19 04:30:54;;;;;;;23.97;13.53;;;;;;;9.28;97.23;101413.56;5131638;27;20023;-80
2021/10/19 04:33:20;;;;;;;23.00;13.52;;;;;;;9.23;96.93;101394.47;5131202;27;20035;-80
2021/10/19 04:35:45;;;;;;;24.83;13.30;;;;;;;9.19;97.03;101400.22;5132219;27;20035;-80
2021/10/19 04:38:11;;;;;;;23.67;14.07;;;;;;;9.23;97.07;101410.47;5131590;27;20126;-80
2021/10/19 04:40:37;;;;;;;23.55;13.43;;;;;;;9.18;97.10;101395.88;5114462;27;20054;-80
2021/10/19 04:43:02;;;;;;;23.77;13.37;;;;;;;9.25;96.79;101402.34;5131495;27;20061;-80
2021/10/19 04:45:28;;;;;;;22.65;13.25;;;;;;;9.25;97.03;101403.19;5132242;27;20031;-80
2021/10/19 04:48:00;;;;;;;25.07;13.77;;;;;;;9.25;96.86;101386.34;5131180;27;20031;-80
2021/10/19 04:50:26;;;;;;;25.48;15.88;;;;;;;9.26;96.81;101398.69;5129522;27;20054;-80
2021/10/19 04:52:52;;;;;;;22.85;14.13;;;;;;;9.30;96.87;101405.44;5112494;27;20039;-79
2021/10/19 04:55:17;;;;;;;26.77;13.50;;;;;;;9.29;97.08;101393.94;5131408;27;20031;-80
2021/10/19 04:57:43;;;;;;;26.00;14.10;;;;;;;9.18;97.47;101393.22;5131581;27;20069;-81
2021/10/19 05:00:09;;;;;;;24.13;13.57;;;;;;;9.25;97.33;101386.34;5131198;27;20033;-81
2021/10/19 05:02:45;;;;;;;23.98;14.95;;;;;;;9.26;97.61;101388.03;5132254;27;20091;-80
2021/10/19 05:05:11;;;;;;;26.75;15.18;;;;;;;9.24;97.22;101385.50;5130049;27;20023;-80
2021/10/19 05:07:37;;;;;;;25.92;14.23;;;;;;;9.23;97.24;101381.16;5131195;27;20054;-80
2021/10/19 05:10:02;;;;;;;26.20;14.63;;;;;;;9.21;97.73;101380.44;5131475;27;20092;-81
2021/10/19 05:12:28;;;;;;;25.45;14.20;;;;;;;9.32;97.76;101389.28;5131146;27;20042;-80
2021/10/19 05:14:53;;;;;;;29.67;15.00;;;;;;;9.34;97.61;101398.84;5130402;27;20063;-80
2021/10/19 05:17:19;;;;;;;32.70;15.00;;;;;;;9.21;97.49;101379.63;5113993;27;20128;-81
2021/10/19 05:19:45;;;;;;;24.42;14.82;;;;;;;9.22;98.33;101375.94;5131357;27;20154;-81
2021/10/19 05:22:11;;;;;;;27.75;15.32;;;;;;;9.19;98.63;101371.75;5130869;27;20116;-79
2021/10/19 05:24:37;;;;;;;27.57;15.23;;;;;;;9.23;98.64;101375.81;5111697;27;20483;-80
2021/10/19 05:27:02;;;;;;;32.37;16.60;;;;;;;9.06;99.12;101344.53;5129059;27;20031;-81
2021/10/19 05:29:29;;;;;;;30.57;16.00;;;;;;;9.11;100.00;101360.09;5111866;27;20062;-80
2021/10/19 05:31:56;;;;;;;26.52;14.57;;;;;;;9.08;100.00;101354.09;5112237;27;20030;-81
2021/10/19 05:34:21;;;;;;;32.30;16.57;;;;;;;9.04;100.00;101365.97;5129380;27;20102;-81
2021/10/19 05:36:47;;;;;;;31.07;16.67;;;;;;;9.10;100.00;101372.56;5130449;27;20458;-81
2021/10/19 05:39:15;;;;;;;33.30;17.40;;;;;;;9.15;100.00;101346.34;5129113;27;20046;-81
2021/10/19 05:41:41;;;;;;;30.23;16.15;;;;;;;9.17;100.00;101360.38;5130218;27;20046;-81
2021/10/19 05:44:07;;;;;;;30.73;16.55;;;;;;;9.17;100.00;101356.88;5129042;27;20039;-81
2021/10/19 05:46:33;;;;;;;26.65;15.40;;;;;;;9.21;100.00;101375.13;5129307;27;20027;-81
2021/10/19 05:48:58;;;;;;;29.42;17.60;;;;;;;9.18;100.00;101359.41;5112014;28;20027;-81
2021/10/19 05:51:24;;;;;;;32.17;17.80;;;;;;;9.12;100.00;101357.28;5129234;27;20097;-81
2021/10/19 05:53:50;;;;;;;30.30;16.63;;;;;;;9.07;100.00;101356.88;5128465;28;20039;-80
2021/10/19 05:56:15;;;;;;;33.63;18.55;;;;;;;9.18;100.00;101367.41;5129076;27;20289;-81
2021/10/19 05:58:41;;;;;;;32.53;18.40;;;;;;;9.15;100.00;101357.00;5129094;27;20039;-81
2021/10/19 06:01:07;;;;;;;28.77;16.53;;;;;;;9.18;100.00;101356.75;5129943;27;20050;-82
2021/10/19 06:03:32;;;;;;;33.20;17.40;;;;;;;9.09;100.00;101349.59;5133563;27;20545;-80
2021/10/19 06:05:58;;;;;;;35.80;19.47;;;;;;;9.18;100.00;101359.41;5116199;27;20038;-82
2021/10/19 06:08:23;;;;;;;32.53;18.60;;;;;;;9.21;100.00;101351.13;5132925;27;20103;-81
2021/10/19 06:10:48;;;;;;;32.53;18.00;;;;;;;9.23;100.00;101345.69;5133844;27;20027;-80
2021/10/19 06:13:14;;;;;;;29.75;16.38;;;;;;;9.27;100.00;101347.94;5132376;27;20037;-79
2021/10/19 06:15:41;;;;;;;33.40;17.87;;;;;;;9.23;100.00;101346.53;5115179;27;20352;-81
2021/10/19 06:18:07;;;;;;;31.58;18.42;;;;;;;9.25;100.00;101343.72;5132900;27;20047;-79
2021/10/19 06:20:32;;;;;;;34.67;18.90;;;;;;;9.25;100.00;101344.56;5132151;27;20079;-79
2021/10/19 06:22:58;;;;;;;34.00;16.77;;;;;;;9.32;100.00;101343.97;5132367;27;20038;-79
2021/10/19 06:25:23;;;;;;;30.37;17.73;;;;;;;9.38;100.00;101348.75;5114976;27;20015;-79
2021/10/19 06:27:49;;;;;;;30.10;17.67;;;;;;;9.42;100.00;101339.50;5132696;27;20348;-79
2021/10/19 06:30:14;;;;;;;27.97;18.17;;;;;;;9.42;100.00;101345.69;5132772;27;20126;-79
2021/10/19 06:32:40;;;;;;;31.85;16.95;;;;;;;9.41;100.00;101337.81;5132785;27;20031;-83
2021/10/19 06:35:08;;;;;;;32.93;18.43;;;;;;;9.56;100.00;101341.75;5132493;27;20037;-79
2021/10/19 06:37:34;;;;;;;30.77;17.63;;;;;;;9.42;99.92;101339.50;5114871;27;20096;-81
2021/10/19 06:39:59;;;;;;;32.50;17.83;;;;;;;9.38;100.00;101346.09;5132925;27;20481;-83
2021/10/19 06:42:25;;;;;;;33.37;18.73;;;;;;;9.42;100.00;101345.69;5132782;27;20458;-82
2021/10/19 06:44:50;;;;;;;33.47;19.43;;;;;;;9.44;100.00;101354.38;5114308;27;20401;-82
2021/10/19 06:47:16;;;;;;;34.67;17.58;;;;;;;9.40;100.00;101350.31;5132632;27;20099;-81
2021/10/19 06:49:43;;;;;;;33.90;18.90;;;;;;;9.46;100.00;101362.25;5132649;27;20156;-82
2021/10/19 06:52:09;;;;;;;36.80;18.70;;;;;;;9.40;100.00;101365.47;5132504;27;20059;-83
2021/10/19 06:54:34;;;;;;;31.05;17.38;;;;;;;9.48;100.00;101368.25;5113707;27;20485;-82
2021/10/19 06:57:00;;;;;;;35.40;19.33;;;;;;;9.51;100.00;101365.31;5131500;27;20084;-82
2021/10/19 06:59:25;;;;;;;31.83;18.50;;;;;;;9.56;100.00;101362.25;5131892;27;20042;-83
2021/10/19 07:01:51;;;;;;;36.67;18.43;;;;;;;9.50;100.00;101343.16;5133277;27;20027;-82
2021/10/19 07:04:16;;;;;;;33.57;17.73;;;;;;;9.57;100.00;101338.09;5132043;27;20353;-84
2021/10/19 07:06:42;;;;;;;34.83;17.63;;;;;;;9.64;100.00;101351.69;5131783;27;20281;-80
2021/10/19 07:09:08;;;;;;;35.47;18.60;;;;;;;9.65;100.00;101334.75;5115085;27;20264;-81
2021/10/19 07:11:33;;;;;;;37.77;17.90;;;;;;;9.60;100.00;101318.31;5131641;27;20040;-80
2021/10/19 07:13:59;;;;;;;34.67;19.70;;;;;;;9.55;100.00;101333.88;5130886;27;20818;-81
2021/10/19 07:16:24;;;;;;;34.88;21.02;;;;;;;9.74;100.00;101336.56;5131643;27;20027;-81
2021/10/19 07:18:50;;;;;;;35.10;19.10;;;;;;;9.91;100.00;101341.13;5114335;27;20376;-81
2021/10/19 07:21:15;;;;;;;33.45;18.45;;;;;;;9.90;100.00;101320.81;5132116;27;20031;-81
2021/10/19 07:23:41;;;;;;;33.53;19.00;;;;;;;9.90;99.98;101307.47;5113994;27;20111;-82
2021/10/19 07:26:07;;;;;;;32.38;19.13;;;;;;;9.93;99.80;101311.66;5114139;27;20043;-81
2021/10/19 07:28:32;;;;;;;38.00;21.17;;;;;;;9.95;99.82;101320.38;5130959;27;20035;-81
2021/10/19 07:30:57;;;;;;;31.10;18.47;;;;;;;9.92;99.73;101325.97;5132105;27;20505;-81
2021/10/19 07:33:23;;;;;;;35.57;20.10;;;;;;;9.99;99.79;101324.41;5113449;27;20285;-81
2021/10/19 07:35:48;;;;;;;36.20;20.27;;;;;;;10.02;99.81;101336.63;5130798;27;20030;-81
2021/10/19 07:38:16;;;;;;;35.10;20.55;;;;;;;10.00;99.93;101347.44;5130431;27;20038;-81
2021/10/19 07:40:41;;;;;;;35.80;20.55;;;;;;;9.98;100.00;101348.56;5130962;27;20043;-81
2021/10/19 07:43:07;;;;;;;38.63;20.17;;;;;;;10.07;100.00;101350.38;5131890;27;20050;-81
2021/10/19 07:45:34;;;;;;;36.92;21.83;;;;;;;10.05;100.00;101336.34;5130651;27;20031;-81
2021/10/19 07:48:01;;;;;;;33.85;19.60;;;;;;;10.06;100.00;101333.50;5129581;27;20027;-80
2021/10/19 07:50:29;;;;;;;39.60;21.23;;;;;;;10.15;100.00;101331.81;5128981;27;20039;-81
2021/10/19 07:52:57;;;;;;;34.50;19.90;;;;;;;10.34;99.99;101325.59;5112440;27;20448;-80
2021/10/19 07:55:24;;;;;;;32.30;19.83;;;;;;;10.42;99.26;101296.34;5128595;27;20081;-81
2021/10/19 07:57:51;;;;;;;38.95;20.80;;;;;;;10.48;98.86;101309.09;5130052;27;20508;-81
2021/10/19 08:00:21;;;;;;;30.73;18.33;;;;;;;10.45;98.75;101317.41;5112679;27;20035;-81
2021/10/19 08:02:46;;;;;;;35.25;19.80;;;;;;;10.38;99.04;101300.28;5131190;27;20539;-81
2021/10/19 08:05:14;;;;;;;33.60;19.17;;;;;;;10.43;98.57;101306.03;5131142;27;20027;-80
2021/10/19 08:07:45;;;;;;;35.33;19.90;;;;;;;10.52;98.78;101307.81;5130341;27;20490;-81
2021/10/19 08:10:14;;;;;;;34.05;20.33;;;;;;;10.57;98.72;101308.19;5130393;27;20462;-81
2021/10/19 08:12:39;;;;;;;33.33;20.70;;;;;;;10.60;98.54;101311.56;5131258;27;20119;-81
2021/10/19 08:15:08;;;;;;;33.05;19.45;;;;;;;10.64;97.93;101305.78;5129810;27;20027;-81
2021/10/19 08:17:34;;;;;;;34.55;19.20;;;;;;;10.77;98.34;101314.28;5112982;27;20029;-81
2021/10/19 08:19:59;;;;;;;34.45;18.65;;;;;;;10.78;98.04;101307.09;5129941;27;20039;-81
2021/10/19 08:22:27;;;;;;;31.87;19.10;;;;;;;10.82;97.63;101295.13;5112746;27;20015;-81
2021/10/19 08:24:54;;;;;;;34.00;19.67;;;;;;;10.84;97.63;101290.47;5128765;27;20098;-81
2021/10/19 08:27:20;;;;;;;38.05;20.63;;;;;;;10.82;97.70;101287.13;5112819;27;20110;-80
2021/10/19 08:29:45;;;;;;;35.93;18.30;;;;;;;10.91;97.31;101286.22;5130005;27;20502;-82
2021/10/19 08:32:10;;;;;;;35.33;19.17;;;;;;;11.04;96.91;101285.81;5129880;27;20038;-81
2021/10/19 08:34:36;;;;;;;32.13;18.80;;;;;;;11.17;96.22;101296.16;5112635;27;20107;-81
2021/10/19 08:37:01;;;;;;;39.30;20.30;;;;;;;11.13;95.57;101282.25;5129973;27;20043;-81
2021/10/19 08:39:27;;;;;;;33.37;19.30;;;;;;;11.31;95.47;101286.75;5130627;27;20031;-82
2021/10/19 08:41:52;;;;;;;37.43;19.40;;;;;;;11.40;95.23;101281.31;5130750;27;20098;-81
2021/10/19 08:44:18;;;;;;;35.05;17.75;;;;;;;11.42;94.82;101283.81;5129717;27;20497;-82
2021/10/19 08:46:43;;;;;;;34.93;18.30;;;;;;;11.45;94.94;101282.66;5112603;27;20023;-82
2021/10/19 08:49:09;;;;;;;38.40;20.10;;;;;;;11.51;94.61;101276.72;5130279;27;20092;-81
2021/10/19 08:51:36;;;;;;;31.20;19.13;;;;;;;11.55;94.59;101276.25;5130589;27;20768;-79
2021/10/19 08:54:06;;;;;;;32.42;19.48;;;;;;;11.51;94.23;101276.72;5127816;27;20038;-80
2021/10/19 08:56:36;;;;;;;31.85;18.67;;;;;;;11.46;94.19;101277.16;5128944;27;20091;-79
2021/10/19 08:59:01;;;;;;;32.78;19.17;;;;;;;11.53;94.23;101277.41;5130488;27;20061;-79
2021/10/19 09:01:35;;;;;;;38.60;18.93;;;;;;;11.56;94.32;101277.06;5130545;27;20615;-81
2021/10/19 09:04:06;;;;;;;31.30;19.58;;;;;;;11.62;94.10;101287.16;5129293;27;20027;-79
2021/10/19 09:06:33;;;;;;;31.52;18.20;;;;;;;11.74;93.87;101293.09;5130548;27;20902;-79
2021/10/19 09:09:09;;;;;;;30.33;18.30;;;;;;;11.81;93.76;101292.28;5132278;27;20403;-79
2021/10/19 09:11:46;;;;;;;28.33;18.25;;;;;;;11.79;93.54;101291.59;5130482;27;20028;-79
2021/10/19 09:14:14;;;;;;;30.48;19.08;;;;;;;11.71;93.81;101296.91;5129106;27;20039;-80
2021/10/19 09:16:51;;;;;;;33.53;18.73;;;;;;;11.69;93.71;101296.22;5112278;27;20410;-83
2021/10/19 09:19:21;;;;;;;31.45;17.33;;;;;;;11.55;94.42;101291.44;5129864;27;20031;-82
2021/10/19 09:21:51;;;;;;;30.70;17.58;;;;;;;11.73;94.31;101305.63;5130397;27;20372;-79
2021/10/19 09:24:25;;;;;;;28.73;17.23;;;;;;;11.73;94.58;101299.41;5129804;27;20043;-81
2021/10/19 09:27:03;;;;;;;31.73;19.65;;;;;;;11.82;93.94;101306.50;5129952;27;20042;-80
2021/10/19 09:29:32;;;;;;;31.90;19.00;;;;;;;11.87;94.29;101306.03;5131546;27;20500;-80
2021/10/19 09:32:01;;;;;;;35.17;18.77;;;;;;;11.79;94.27;101285.44;5129942;27;20333;-80
2021/10/19 09:34:32;;;;;;;31.63;18.42;;;;;;;11.94;94.02;101283.91;5112356;28;20027;-80
2021/10/19 09:37:00;;;;;;;36.78;19.60;;;;;;;11.83;94.14;101265.41;5128360;27;20031;-80
2021/10/19 09:39:40;;;;;;;27.95;18.27;;;;;;;11.79;94.31;101267.53;5129257;27;20118;-79
2021/10/19 09:42:20;;;;;;;29.02;17.88;;;;;;;11.94;94.38;101286.56;5128819;27;20035;-80
2021/10/19 09:44:57;;;;;;;29.95;18.88;;;;;;;12.13;93.68;101276.63;5129584;27;20038;-80
2021/10/19 09:47:24;;;;;;;36.67;19.77;;;;;;;12.10;93.66;101266.22;5129242;27;20074;-80
2021/10/19 09:49:51;;;;;;;30.25;18.45;;;;;;;12.21;93.15;101264.13;5129010;27;20027;-79
2021/10/19 09:52:17;;;;;;;31.05;19.83;;;;;;;12.31;92.89;101265.81;5130337;27;20031;-80
2021/10/19 09:54:44;;;;;;;33.50;18.25;;;;;;;12.26;92.99;101271.66;5128548;27;20058;-79
2021/10/19 09:57:10;;;;;;;31.20;17.58;;;;;;;12.35;93.36;101265.34;5130648;27;20027;-80
2021/10/19 09:59:35;;;;;;;30.33;18.05;;;;;;;12.32;93.06;101254.97;5129828;28;20813;-80
2021/10/19 10:02:02;;;;;;;28.67;18.43;;;;;;;12.31;93.09;101253.28;5112405;28;20781;-81
2021/10/19 10:04:28;;;;;;;31.52;19.13;;;;;;;12.26;93.85;101250.25;5128909;27;20035;-79
2021/10/19 10:06:56;;;;;;;29.60;17.52;;;;;;;12.38;93.54;101254.31;5130151;27;20046;-79
2021/10/19 10:09:23;;;;;;;32.08;17.98;;;;;;;12.43;93.48;101243.09;5129209;28;20651;-80
2021/10/19 10:11:49;;;;;;;34.10;19.60;;;;;;;12.45;93.03;101233.06;5129110;28;20475;-80
2021/10/19 10:14:14;;;;;;;28.53;17.33;;;;;;;12.47;93.47;101231.06;5111848;28;20023;-81
2021/10/19 10:16:49;;;;;;;29.73;18.05;;;;;;;12.70;92.82;101227.78;5129190;27;20031;-80
2021/10/19 10:19:18;;;;;;;31.52;18.52;;;;;;;12.56;92.91;101219.38;5128706;27;20627;-80
2021/10/19 10:21:49;;;;;;;30.70;18.38;;;;;;;12.74;92.76;101215.75;5129049;27;20406;-79
2021/10/19 10:24:26;;;;;;;26.58;16.88;;;;;;;12.84;92.31;101211.06;5128787;28;20031;-79
2021/10/19 10:27:02;;;;;;;29.33;18.45;;;;;;;12.80;92.27;101213.22;5128834;28;20071;-79
2021/10/19 10:29:39;;;;;;;30.55;17.85;;;;;;;12.75;92.45;101202.16;5129039;28;20045;-80
2021/10/19 10:32:06;;;;;;;32.63;18.77;;;;;;;13.00;91.71;101208.41;5129590;27;20031;-80
2021/10/19 10:34:32;;;;;;;27.75;17.20;;;;;;;13.22;91.02;101203.34;5111572;28;20035;-81
2021/10/19 10:37:11;;;;;;;26.88;16.83;;;;;;;13.19;90.50;101182.25;5128225;28;20051;-81
2021/10/19 10:39:46;;;;;;;25.17;15.93;;;;;;;13.38;90.10;101192.66;5128723;27;20119;-81
2021/10/19 10:42:13;;;;;;;29.45;17.05;;;;;;;13.43;90.45;101195.66;5128104;28;20038;-81
2021/10/19 10:44:41;;;;;;;31.95;18.15;;;;;;;13.55;89.95;101179.19;5110600;28;20027;-82
2021/10/19 10:47:09;;;;;;;30.92;15.63;;;;;;;13.43;89.79;101179.56;5128820;27;20121;-83
2021/10/19 10:49:35;;;;;;;29.08;17.27;;;;;;;13.40;89.97;101174.53;5130894;27;20084;-81
2021/10/19 10:52:02;;;;;;;28.60;17.00;;;;;;;13.39;89.98;101172.03;5131357;27;20039;-79
2021/10/19 10:54:28;;;;;;;24.50;17.33;;;;;;;13.45;90.66;101174.03;5130388;27;20043;-79
2021/10/19 10:56:54;;;;;;;;;;;;;;;13.72;89.94;101172.81;5132946;27;20015;-81
2021/10/19 10:59:29;;;;;;;;;;;;;;;14.05;88.54;101164.63;5132141;27;19919;-82
2021/10/19 11:01:58;;;;;;;28.20;16.48;;;;;;;13.79;88.94;101151.44;5132346;27;20258;-80
2021/10/19 11:04:24;;;;;;;26.55;15.40;;;;;;;14.03;88.64;101142.47;5130860;27;20059;-81
2021/10/19 11:06:49;;;;;;;26.52;15.20;;;;;;;13.99;88.03;101130.41;5131424;27;20448;-80
2021/10/19 11:09:16;;;;;;;22.57;16.33;;;;;;;13.96;88.66;101136.13;5132883;27;20072;-80
2021/10/19 11:11:46;;;;;;;25.08;15.25;;;;;;;14.10;88.17;101121.97;5134071;27;20035;-81